Rosario del Tala, Argentina
Current Conditions -  °F | °C
As of 12:00 PM on Wednesday 22 Oct 2014 (Local Time) from SUSO Reporting Station
Clear Clear  
Wind Chill: 81°   Ceiling: Unl
Heat Index: 81°   Visibility: 6mi
Dew Point: 52°   Wind: 7mph
Humidity: 37%   Direction: 50°NE
Pressure: 30.06"   Gusts: NA
Location:  32.3°S, 59.15°W
Report Text: SUSO 221500Z 05006KT CAVOK 27/11 Q1018
Loading
Personal Weather Stations






























Interactive Weather Map New forecast layout! Learn more

10-Day Weather Forecast

Advertisements
Track Severe Weather on mobile